Flood From: 18-02-2018 10:00 Until: 19-02-2018 06:00 warning for: Flood Level: Yellow info button

Although rather usual in this region, locally or potentially dangerous phenomena are expected. (such as local winds, summer thunderstorms, rising streams or high waves) Be aware and pay attention to the latest weather updates, especially if you carry out activities exposed to weather or close to a stream or shoreline. 


Meteo18 Weather Cam more information Meteo18 Weather Cam


Thunder radar more information blitzortung!


Rain radar more information rain snow radar


Visit our other weather sites:

Template documentation
and downloads

And another site



Weather Underground History page Text

Daily Summary for May 8, 2017 Units:  English    Metric   Both
« Previous Day
Next Day »
Daily Weekly Monthly Yearly Custom
  High: Low: Average:
Temperature: TemperatureC °F 8.3 °F 10.2 °F
Dew Point: DewpointC °F 4.9 °F 7.1 °F
Humidity: Humidity % 66 % 81 %
Wind Speed: WindSpeedKMH mph 0.0 mph 6.1 mph
Wind Gust: WindSpeedGustKMH mph - -
Wind:- - South
Pressure: PressurehPa in 1021.6 in -
Precipitation: 0.0 in    
Historical Graphs
 
 
Tabular Data for May 8, 2017
Time Temperature Dew Point Pressure Wind Wind Speed Wind Gust Humidity Rainfall Rate (Hourly)
TemperatureC °F DewpointC °F PressurehPa in Calm     Humidity % HourlyPrecipMM in
00:02 9.9 °F 9.1 °F 1021.9 in Calm   1.6 mph 95 % 0.0 in
00:07 10.0 °F 9.2 °F 1021.9 in WSW 3.2 mph 3.2 mph 95 % 0.0 in
00:12 10.1 °F 9.3 °F 1022.2 in NW 4.8 mph 6.4 mph 95 % 0.0 in
00:17 10.3 °F 9.5 °F 1022.2 in Calm   11.3 mph 95 % 0.0 in
00:22 10.4 °F 9.6 °F 1022.2 in West 1.6 mph 11.3 mph 95 % 0.0 in
00:32 10.5 °F 9.7 °F 1021.9 in Calm   6.4 mph 95 % 0.0 in
00:37 10.5 °F 9.7 °F 1021.9 in WNW 1.6 mph 3.2 mph 95 % 0.0 in
00:42 10.4 °F 9.6 °F 1021.9 in WNW 1.6 mph 4.8 mph 95 % 0.0 in
00:47 10.3 °F 9.5 °F 1022.2 in NW 4.8 mph 8.0 mph 95 % 0.0 in
00:52 10.3 °F 9.5 °F 1022.2 in WNW 4.8 mph 8.0 mph 95 % 0.0 in
00:57 10.2 °F 9.3 °F 1022.2 in NW 4.8 mph 8.0 mph 94 % 0.0 in
01:02 10.1 °F 9.2 °F 1021.9 in WNW 3.2 mph 14.5 mph 94 % 0.0 in
01:12 10.0 °F 8.9 °F 1022.2 in NW 1.6 mph 14.5 mph 93 % 0.0 in
01:17 9.9 °F 8.8 °F 1022.2 in WNW 4.8 mph 11.3 mph 93 % 0.0 in
01:22 9.9 °F 8.8 °F 1022.2 in NW 3.2 mph 11.3 mph 93 % 0.0 in
01:27 9.8 °F 8.7 °F 1022.2 in NW 1.6 mph 9.7 mph 93 % 0.0 in
01:32 9.8 °F 8.7 °F 1022.2 in Calm   9.7 mph 93 % 0.0 in
01:37 9.8 °F 8.7 °F 1022.2 in WNW 3.2 mph 6.4 mph 93 % 0.0 in
01:42 9.7 °F 8.6 °F 1022.2 in WNW 1.6 mph 8.0 mph 93 % 0.0 in
01:47 9.7 °F 8.6 °F 1022.2 in NW 4.8 mph 9.7 mph 93 % 0.0 in
01:52 9.7 °F 8.5 °F 1021.9 in NW 3.2 mph 9.7 mph 92 % 0.0 in
01:57 9.6 °F 8.4 °F 1021.9 in WNW 3.2 mph 9.7 mph 92 % 0.0 in
02:02 9.4 °F 8.2 °F 1021.9 in NW 3.2 mph 9.7 mph 92 % 0.0 in
02:12 9.2 °F 8.0 °F 1021.9 in NW 6.4 mph 8.0 mph 92 % 0.0 in
02:17 9.1 °F 7.9 °F 1021.9 in WNW 1.6 mph 8.0 mph 92 % 0.0 in
02:22 8.9 °F 7.7 °F 1021.9 in West 1.6 mph 9.7 mph 92 % 0.0 in
02:27 8.8 °F 7.6 °F 1021.9 in NW 3.2 mph 9.7 mph 92 % 0.0 in
02:32 8.7 °F 7.6 °F 1021.9 in WNW 1.6 mph 9.7 mph 93 % 0.0 in
02:37 8.5 °F 7.4 °F 1021.9 in NNW 4.8 mph 8.0 mph 93 % 0.0 in
02:42 8.4 °F 7.3 °F 1021.9 in NW 1.6 mph 8.0 mph 93 % 0.0 in
02:47 8.4 °F 7.3 °F 1021.9 in NW 3.2 mph 9.7 mph 93 % 0.0 in
02:52 8.4 °F 7.5 °F 1021.6 in NW 4.8 mph 9.7 mph 94 % 0.0 in
02:57 8.3 °F 7.4 °F 1021.6 in WNW 6.4 mph 9.7 mph 94 % 0.0 in
03:02 8.3 °F 7.4 °F 1021.6 in NW 8.0 mph 8.0 mph 94 % 0.0 in
03:07 8.3 °F 7.4 °F 1021.6 in NW 1.6 mph 9.7 mph 94 % 0.0 in
03:12 8.4 °F 7.5 °F 1021.6 in WNW 1.6 mph 9.7 mph 94 % 0.0 in
03:17 8.4 °F 7.5 °F 1021.6 in Calm   9.7 mph 94 % 0.0 in
03:22 8.4 °F 7.5 °F 1021.6 in NW 4.8 mph 6.4 mph 94 % 0.0 in
03:27 8.4 °F 7.5 °F 1021.6 in Calm   6.4 mph 94 % 0.0 in
03:32 8.4 °F 7.5 °F 1021.6 in NNE 1.6 mph 6.4 mph 94 % 0.0 in
03:37 8.5 °F 7.6 °F 1021.6 in Calm   6.4 mph 94 % 0.0 in
03:42 8.6 °F 7.8 °F 1021.6 in NNE 4.8 mph 6.4 mph 95 % 0.0 in
03:52 8.8 °F 8.0 °F 1021.6 in NNE 6.4 mph 14.5 mph 95 % 0.0 in
03:57 8.9 °F 8.1 °F 1021.6 in North 4.8 mph 14.5 mph 95 % 0.0 in
04:02 8.9 °F 8.1 °F 1021.6 in North 4.8 mph 14.5 mph 95 % 0.0 in
04:07 9.0 °F 8.2 °F 1021.6 in NNW 4.8 mph 14.5 mph 95 % 0.0 in
04:12 9.1 °F 8.3 °F 1021.6 in NNW 9.7 mph 14.5 mph 95 % 0.0 in
04:17 9.1 °F 8.3 °F 1021.6 in NNE 9.7 mph 17.7 mph 95 % 0.0 in
04:22 9.2 °F 8.3 °F 1021.6 in NE 3.2 mph 17.7 mph 94 % 0.0 in
04:27 9.2 °F 8.3 °F 1021.6 in NNE 11.3 mph 19.3 mph 94 % 0.0 in
04:32 9.2 °F 8.3 °F 1021.9 in North 6.4 mph 19.3 mph 94 % 0.0 in
04:37 9.2 °F 8.3 °F 1021.9 in NNW 16.1 mph 19.3 mph 94 % 0.0 in
04:42 9.2 °F 8.3 °F 1021.9 in NNW 3.2 mph 19.3 mph 94 % 0.0 in
04:47 9.2 °F 8.3 °F 1021.9 in North 11.3 mph 17.7 mph 94 % 0.0 in
04:52 9.2 °F 8.3 °F 1021.9 in NNW 11.3 mph 19.3 mph 94 % 0.0 in
04:57 9.2 °F 8.3 °F 1021.9 in NNW 4.8 mph 19.3 mph 94 % 0.0 in
05:02 9.2 °F 8.3 °F 1021.9 in NE 4.8 mph 19.3 mph 94 % 0.0 in
05:07 9.2 °F 8.3 °F 1021.9 in NNE 24.1 mph 24.1 mph 94 % 0.0 in
05:12 9.1 °F 8.2 °F 1021.9 in NE 12.9 mph 24.1 mph 94 % 0.0 in
05:17 9.1 °F 8.2 °F 1021.9 in North 6.4 mph 24.1 mph 94 % 0.0 in
05:22 9.1 °F 8.0 °F 1021.9 in North 14.5 mph 24.1 mph 93 % 0.0 in
05:27 9.0 °F 7.9 °F 1021.9 in NNE 9.7 mph 19.3 mph 93 % 0.0 in
05:32 8.9 °F 7.8 °F 1021.9 in NE 4.8 mph 19.3 mph 93 % 0.0 in
05:37 8.9 °F 7.8 °F 1021.9 in ENE 8.0 mph 17.7 mph 93 % 0.0 in
05:42 8.9 °F 7.8 °F 1021.9 in NW 6.4 mph 17.7 mph 93 % 0.0 in
05:47 8.9 °F 7.8 °F 1021.9 in Calm   16.1 mph 93 % 0.0 in
05:52 8.9 °F 7.8 °F 1021.9 in NE 6.4 mph 14.5 mph 93 % 0.0 in
05:57 8.9 °F 7.8 °F 1021.9 in North 1.6 mph 11.3 mph 93 % 0.0 in
06:02 8.9 °F 7.8 °F 1021.9 in NE 6.4 mph 11.3 mph 93 % 0.0 in
06:12 8.8 °F 7.7 °F 1021.9 in North 9.7 mph 12.9 mph 93 % 0.0 in
06:17 8.8 °F 7.7 °F 1021.9 in NNW 4.8 mph 12.9 mph 93 % 0.0 in
06:22 8.8 °F 7.7 °F 1022.2 in North 16.1 mph 16.1 mph 93 % 0.0 in
06:27 8.8 °F 7.7 °F 1022.2 in NE 6.4 mph 16.1 mph 93 % 0.0 in
06:32 8.8 °F 7.7 °F 1022.2 in NE 9.7 mph 17.7 mph 93 % 0.0 in
06:42 8.8 °F 7.7 °F 1022.2 in North 9.7 mph 17.7 mph 93 % 0.0 in
06:52 8.7 °F 7.6 °F 1022.2 in NE 9.7 mph 16.1 mph 93 % 0.0 in
06:57 8.7 °F 7.6 °F 1022.2 in North 6.4 mph 12.9 mph 93 % 0.0 in
07:02 8.7 °F 7.5 °F 1022.2 in NE 17.7 mph 17.7 mph 92 % 0.0 in
07:12 8.4 °F 7.2 °F 1022.2 in North 6.4 mph 17.7 mph 92 % 0.0 in
07:17 8.4 °F 7.2 °F 1022.2 in NNE 3.2 mph 17.7 mph 92 % 0.0 in
07:22 8.4 °F 7.2 °F 1022.2 in North 1.6 mph 14.5 mph 92 % 0.0 in
07:32 8.4 °F 7.2 °F 1022.2 in Calm   14.5 mph 92 % 0.0 in
07:37 8.4 °F 7.2 °F 1022.2 in North 1.6 mph 12.9 mph 92 % 0.0 in
07:42 8.5 °F 7.3 °F 1022.2 in North 3.2 mph 12.9 mph 92 % 0.0 in
07:47 8.5 °F 7.3 °F 1022.6 in NW 6.4 mph 12.9 mph 92 % 0.0 in
07:52 8.5 °F 7.1 °F 1022.6 in North 4.8 mph 12.9 mph 91 % 0.0 in
07:57 8.6 °F 7.2 °F 1022.9 in North 14.5 mph 14.5 mph 91 % 0.0 in
08:02 8.6 °F 7.2 °F 1022.6 in North 6.4 mph 12.9 mph 91 % 0.0 in
08:12 8.6 °F 7.1 °F 1022.6 in NNE 14.5 mph 16.1 mph 90 % 0.0 in
08:17 8.6 °F 6.9 °F 1022.6 in NE 14.5 mph 19.3 mph 89 % 0.0 in
08:22 8.7 °F 7.0 °F 1022.6 in NNE 6.4 mph 20.9 mph 89 % 0.0 in
08:27 8.7 °F 6.8 °F 1022.9 in NNW 9.7 mph 20.9 mph 88 % 0.0 in
08:32 8.7 °F 6.8 °F 1022.9 in North 4.8 mph 20.9 mph 88 % 0.0 in
08:37 8.8 °F 6.8 °F 1022.9 in NE 8.0 mph 19.3 mph 87 % 0.0 in
08:42 8.8 °F 6.8 °F 1022.9 in NNE 4.8 mph 17.7 mph 87 % 0.0 in
08:47 8.9 °F 6.9 °F 1022.9 in NE 9.7 mph 17.7 mph 87 % 0.0 in
08:52 9.1 °F 6.7 °F 1022.9 in North 6.4 mph 17.7 mph 85 % 0.0 in
08:57 9.1 °F 6.5 °F 1022.9 in North 4.8 mph 17.7 mph 84 % 0.0 in
09:02 9.1 °F 6.5 °F 1022.9 in NNE 8.0 mph 17.7 mph 84 % 0.0 in
09:07 9.2 °F 6.8 °F 1022.9 in North 6.4 mph 19.3 mph 85 % 0.0 in
09:12 9.2 °F 6.8 °F 1023.2 in NE 12.9 mph 19.3 mph 85 % 0.0 in
09:17 9.2 °F 6.8 °F 1023.2 in NW 1.6 mph 17.7 mph 85 % 0.0 in
09:22 9.1 °F 6.7 °F 1023.2 in North 9.7 mph 14.5 mph 85 % 0.0 in
09:27 9.1 °F 6.7 °F 1023.2 in NNW 1.6 mph 16.1 mph 85 % 0.0 in
09:32 9.2 °F 7.0 °F 1023.2 in NNE 3.2 mph 16.1 mph 86 % 0.0 in
09:37 9.1 °F 6.7 °F 1023.2 in North 9.7 mph 17.7 mph 85 % 0.0 in
09:42 9.1 °F 6.7 °F 1023.2 in North 4.8 mph 17.7 mph 85 % 0.0 in
09:47 9.0 °F 6.4 °F 1023.2 in NNW 9.7 mph 17.7 mph 84 % 0.0 in
09:52 9.1 °F 6.7 °F 1023.2 in NNE 9.7 mph 16.1 mph 85 % 0.0 in
09:57 9.1 °F 6.7 °F 1023.2 in NNW 6.4 mph 14.5 mph 85 % 0.0 in
10:02 9.1 °F 6.2 °F 1023.2 in NNW 6.4 mph 14.5 mph 82 % 0.0 in
10:12 9.1 °F 6.0 °F 1023.2 in North 8.0 mph 20.9 mph 81 % 0.0 in
10:17 9.1 °F 6.2 °F 1023.6 in NNW 11.3 mph 19.3 mph 82 % 0.0 in
10:22 9.1 °F 6.4 °F 1023.6 in NNE 9.7 mph 19.3 mph 83 % 0.0 in
10:27 9.1 °F 6.2 °F 1023.6 in ENE 8.0 mph 16.1 mph 82 % 0.0 in
10:32 9.2 °F 6.3 °F 1023.6 in NNW 8.0 mph 16.1 mph 82 % 0.0 in
10:37 9.2 °F 6.5 °F 1023.6 in WNW 4.8 mph 16.1 mph 83 % 0.0 in
10:42 9.2 °F 6.5 °F 1023.6 in North 1.6 mph 16.1 mph 83 % 0.0 in
10:52 9.1 °F 6.4 °F 1023.6 in NW 3.2 mph 11.3 mph 83 % 0.0 in
10:57 9.1 °F 6.4 °F 1023.6 in NNW 4.8 mph 11.3 mph 83 % 0.0 in
11:02 9.1 °F 6.4 °F 1023.6 in North 6.4 mph 14.5 mph 83 % 0.0 in
11:12 9.3 °F 6.0 °F 1023.6 in North 9.7 mph 17.7 mph 80 % 0.0 in
11:17 9.3 °F 6.0 °F 1023.6 in NNW 8.0 mph 17.7 mph 80 % 0.0 in
11:22 9.6 °F 6.3 °F 1023.6 in NNW 4.8 mph 19.3 mph 80 % 0.0 in
11:27 10.0 °F 6.7 °F 1023.6 in NNW 4.8 mph 19.3 mph 80 % 0.0 in
11:32 10.4 °F 6.7 °F 1023.6 in NNE 1.6 mph 16.1 mph 78 % 0.0 in
11:37 10.7 °F 6.6 °F 1023.6 in NW 9.7 mph 19.3 mph 76 % 0.0 in
11:42 10.7 °F 6.3 °F 1023.6 in NE 8.0 mph 19.3 mph 74 % 0.0 in
11:47 10.7 °F 6.4 °F 1023.6 in North 4.8 mph 20.9 mph 75 % 0.0 in
11:52 11.1 °F 7.2 °F 1023.6 in NNE 3.2 mph 20.9 mph 77 % 0.0 in
12:02 11.4 °F 6.7 °F 1023.6 in ENE 1.6 mph 19.3 mph 73 % 0.0 in
12:07 11.5 °F 6.6 °F 1023.6 in NE 14.5 mph 19.3 mph 72 % 0.0 in
12:12 11.3 °F 6.6 °F 1023.6 in NNW 6.4 mph 20.9 mph 73 % 0.0 in
12:17 11.3 °F 6.6 °F 1023.6 in North 3.2 mph 20.9 mph 73 % 0.0 in
12:22 11.4 °F 6.9 °F 1023.2 in NW 9.7 mph 19.3 mph 74 % 0.0 in
12:32 11.5 °F 7.2 °F 1023.2 in NE 16.1 mph 17.7 mph 75 % 0.0 in
12:37 11.4 °F 6.9 °F 1023.6 in NNW 9.7 mph 24.1 mph 74 % 0.0 in
12:42 11.3 °F 7.0 °F 1023.6 in NNW 6.4 mph 24.1 mph 75 % 0.0 in
12:47 11.3 °F 7.2 °F 1023.6 in NE 6.4 mph 24.1 mph 76 % 0.0 in
12:52 11.2 °F 6.9 °F 1023.6 in North 6.4 mph 19.3 mph 75 % 0.0 in
12:57 11.2 °F 7.3 °F 1023.6 in NNE 4.8 mph 16.1 mph 77 % 0.0 in
13:02 11.0 °F 6.7 °F 1023.6 in North 6.4 mph 20.9 mph 75 % 0.0 in
13:07 10.9 °F 7.0 °F 1023.2 in NNE 12.9 mph 20.9 mph 77 % 0.0 in
13:12 10.9 °F 6.8 °F 1023.2 in East 3.2 mph 20.9 mph 76 % 0.0 in
13:17 11.2 °F 7.1 °F 1023.2 in NW 1.6 mph 19.3 mph 76 % 0.0 in
13:22 11.4 °F 7.3 °F 1023.2 in NNW 4.8 mph 14.5 mph 76 % 0.0 in
13:32 11.2 °F 7.3 °F 1023.2 in North 4.8 mph 17.7 mph 77 % 0.0 in
13:37 11.1 °F 7.2 °F 1023.2 in North 4.8 mph 17.7 mph 77 % 0.0 in
13:42 11.1 °F 7.2 °F 1023.2 in NE 19.3 mph 19.3 mph 77 % 0.0 in
13:47 11.0 °F 7.1 °F 1023.2 in NW 12.9 mph 19.3 mph 77 % 0.0 in
13:52 11.0 °F 6.9 °F 1023.2 in North 3.2 mph 19.3 mph 76 % 0.0 in
13:57 11.1 °F 7.0 °F 1023.2 in North 4.8 mph 19.3 mph 76 % 0.0 in
14:02 11.2 °F 7.1 °F 1023.2 in North 6.4 mph 14.5 mph 76 % 0.0 in
14:07 11.1 °F 7.0 °F 1023.2 in NNW 4.8 mph 14.5 mph 76 % 0.0 in
14:12 11.1 °F 7.0 °F 1023.2 in North 6.4 mph 14.5 mph 76 % 0.0 in
14:17 11.1 °F 7.0 °F 1023.2 in North 12.9 mph 14.5 mph 76 % 0.0 in
14:22 11.2 °F 7.1 °F 1023.2 in NW 4.8 mph 14.5 mph 76 % 0.0 in
14:27 11.3 °F 7.2 °F 1023.2 in NW 6.4 mph 14.5 mph 76 % 0.0 in
14:32 11.4 °F 7.1 °F 1023.2 in WNW 4.8 mph 12.9 mph 75 % 0.0 in
14:37 11.4 °F 7.3 °F 1023.2 in NNW 4.8 mph 9.7 mph 76 % 0.0 in
14:42 11.4 °F 7.1 °F 1023.2 in NNW 9.7 mph 11.3 mph 75 % 0.0 in
14:47 11.4 °F 7.3 °F 1023.2 in NNW 8.0 mph 14.5 mph 76 % 0.0 in
14:52 11.4 °F 7.1 °F 1023.2 in North 1.6 mph 14.5 mph 75 % 0.0 in
14:57 11.4 °F 7.3 °F 1023.2 in West 8.0 mph 11.3 mph 76 % 0.0 in
15:02 11.4 °F 7.3 °F 1023.2 in NNW 8.0 mph 16.1 mph 76 % 0.0 in
15:07 11.3 °F 7.4 °F 1023.2 in NNW 3.2 mph 16.1 mph 77 % 0.0 in
15:12 11.2 °F 7.7 °F 1023.2 in NW 3.2 mph 16.1 mph 79 % 0.0 in
15:17 11.2 °F 7.5 °F 1023.2 in NW 11.3 mph 12.9 mph 78 % 0.0 in
15:22 11.1 °F 7.2 °F 1023.2 in NNW 4.8 mph 16.1 mph 77 % 0.0 in
15:27 11.1 °F 7.2 °F 1022.9 in North 3.2 mph 17.7 mph 77 % 0.0 in
15:32 11.3 °F 7.8 °F 1023.2 in NNE 8.0 mph 17.7 mph 79 % 0.0 in
15:42 11.9 °F 7.4 °F 1022.9 in North 8.0 mph 12.9 mph 74 % 0.0 in
15:47 12.1 °F 7.6 °F 1022.9 in Calm   9.7 mph 74 % 0.0 in
15:52 12.3 °F 7.4 °F 1022.9 in NW 3.2 mph 9.7 mph 72 % 0.0 in
15:57 12.7 °F 7.4 °F 1022.9 in NNW 9.7 mph 12.9 mph 70 % 0.0 in
16:02 12.7 °F 7.2 °F 1022.6 in North 4.8 mph 16.1 mph 69 % 0.0 in
16:07 12.7 °F 7.8 °F 1022.6 in NNE 3.2 mph 16.1 mph 72 % 0.0 in
16:12 12.7 °F 7.4 °F 1022.6 in West 1.6 mph 16.1 mph 70 % 0.0 in
16:17 13.0 °F 7.9 °F 1022.6 in NNW 1.6 mph 16.1 mph 71 % 0.0 in
16:22 13.1 °F 8.0 °F 1022.6 in NNW 6.4 mph 16.1 mph 71 % 0.0 in
16:27 12.9 °F 7.8 °F 1022.2 in NW 4.8 mph 12.9 mph 71 % 0.0 in
16:32 12.9 °F 7.8 °F 1022.6 in NNE 9.7 mph 17.7 mph 71 % 0.0 in
16:37 13.2 °F 8.5 °F 1022.2 in WNW 1.6 mph 17.7 mph 73 % 0.0 in
16:42 13.2 °F 7.2 °F 1022.2 in North 6.4 mph 17.7 mph 67 % 0.0 in
16:47 13.1 °F 7.5 °F 1022.2 in NNE 8.0 mph 17.7 mph 69 % 0.0 in
16:52 13.2 °F 7.6 °F 1022.2 in NNW 3.2 mph 9.7 mph 69 % 0.0 in
16:57 13.6 °F 8.0 °F 1022.2 in NNW 4.8 mph 17.7 mph 69 % 0.0 in
17:02 13.7 °F 7.5 °F 1022.2 in NNW 8.0 mph 17.7 mph 66 % 0.0 in
17:07 13.9 °F 8.1 °F 1022.2 in North 11.3 mph 17.7 mph 68 % 0.0 in
17:12 13.8 °F 7.6 °F 1022.2 in NW 14.5 mph 14.5 mph 66 % 0.0 in
17:17 13.6 °F 8.0 °F 1022.2 in NNE 11.3 mph 20.9 mph 69 % 0.0 in
17:22 13.3 °F 7.7 °F 1022.2 in NE 6.4 mph 20.9 mph 69 % 0.0 in
17:27 13.2 °F 8.1 °F 1021.9 in NE 8.0 mph 14.5 mph 71 % 0.0 in
17:32 13.3 °F 7.7 °F 1021.9 in NNE 11.3 mph 12.9 mph 69 % 0.0 in
17:37 13.1 °F 7.8 °F 1021.9 in North 9.7 mph 14.5 mph 70 % 0.0 in
17:42 13.2 °F 8.1 °F 1021.9 in NNE 4.8 mph 14.5 mph 71 % 0.0 in
17:47 13.7 °F 8.3 °F 1021.9 in NE 3.2 mph 14.5 mph 70 % 0.0 in
17:52 13.9 °F 7.7 °F 1021.9 in NNW 4.8 mph 16.1 mph 66 % 0.0 in
17:57 14.1 °F 7.8 °F 1021.9 in NNE 12.9 mph 16.1 mph 66 % 0.0 in
18:02 13.9 °F 7.9 °F 1021.9 in North 14.5 mph 20.9 mph 67 % 0.0 in
18:07 13.6 °F 7.8 °F 1021.9 in NNW 12.9 mph 20.9 mph 68 % 0.0 in
18:12 13.4 °F 7.6 °F 1021.9 in North 4.8 mph 20.9 mph 68 % 0.0 in
18:17 13.3 °F 7.7 °F 1021.9 in Calm   19.3 mph 69 % 0.0 in
18:22 13.2 °F 7.8 °F 1021.9 in NNE 8.0 mph 12.9 mph 70 % 0.0 in
18:32 13.6 °F 8.0 °F 1021.6 in NNE 9.7 mph 11.3 mph 69 % 0.0 in
18:37 13.8 °F 7.6 °F 1021.6 in NE 22.5 mph 22.5 mph 66 % 0.0 in
18:42 13.2 °F 7.4 °F 1021.6 in NNE 20.9 mph 22.5 mph 68 % 0.0 in
18:47 12.9 °F 7.1 °F 1021.6 in NE 8.0 mph 24.1 mph 68 % 0.0 in
18:52 12.8 °F 7.0 °F 1021.6 in NE 3.2 mph 24.1 mph 68 % 0.0 in
18:57 12.7 °F 6.9 °F 1021.9 in WNW 9.7 mph 22.5 mph 68 % 0.0 in
19:07 12.5 °F 7.2 °F 1021.9 in NE 17.7 mph 22.5 mph 70 % 0.0 in
19:12 12.2 °F 7.1 °F 1021.9 in NNE 14.5 mph 27.4 mph 71 % 0.0 in
19:17 12.0 °F 6.9 °F 1021.9 in NE 11.3 mph 27.4 mph 71 % 0.0 in
19:22 11.8 °F 6.7 °F 1022.2 in NNE 9.7 mph 27.4 mph 71 % 0.0 in
19:27 11.6 °F 6.5 °F 1021.9 in NNW 14.5 mph 29.0 mph 71 % 0.0 in
19:32 11.4 °F 6.5 °F 1022.2 in NNE 16.1 mph 30.6 mph 72 % 0.0 in
19:37 11.2 °F 6.1 °F 1022.2 in NNW 12.9 mph 30.6 mph 71 % 0.0 in
19:42 11.2 °F 6.1 °F 1022.2 in NE 8.0 mph 30.6 mph 71 % 0.0 in
19:47 11.2 °F 5.7 °F 1022.2 in NNE 12.9 mph 20.9 mph 69 % 0.0 in
19:52 11.1 °F 5.6 °F 1022.2 in NNE 3.2 mph 19.3 mph 69 % 0.0 in
19:57 11.1 °F 5.6 °F 1022.2 in Calm   19.3 mph 69 % 0.0 in
20:02 11.0 °F 5.5 °F 1022.2 in NNE 1.6 mph 20.9 mph 69 % 0.0 in
20:07 10.9 °F 5.4 °F 1022.2 in NE 16.1 mph 20.9 mph 69 % 0.0 in
20:12 10.9 °F 5.4 °F 1022.2 in NNW 3.2 mph 20.9 mph 69 % 0.0 in
20:17 10.9 °F 5.6 °F 1022.2 in North 4.8 mph 19.3 mph 70 % 0.0 in
20:22 10.9 °F 5.4 °F 1022.2 in NE 6.4 mph 19.3 mph 69 % 0.0 in
20:27 10.9 °F 5.4 °F 1022.2 in NNE 6.4 mph 14.5 mph 69 % 0.0 in
20:32 10.9 °F 5.0 °F 1022.2 in NE 3.2 mph 24.1 mph 67 % 0.0 in
20:37 10.9 °F 5.0 °F 1022.2 in NNE 9.7 mph 24.1 mph 67 % 0.0 in
20:42 10.7 °F 5.2 °F 1022.2 in NNE 8.0 mph 24.1 mph 69 % 0.0 in
20:47 10.5 °F 5.3 °F 1022.2 in NNW 6.4 mph 20.9 mph 70 % 0.0 in
20:52 10.3 °F 5.1 °F 1022.2 in NNW 4.8 mph 16.1 mph 70 % 0.0 in
20:57 10.2 °F 5.2 °F 1022.2 in North 1.6 mph 14.5 mph 71 % 0.0 in
21:02 9.8 °F 5.0 °F 1022.6 in NNE 1.6 mph 14.5 mph 72 % 0.0 in
21:07 9.7 °F 5.1 °F 1022.2 in NNE 9.7 mph 12.9 mph 73 % 0.0 in
21:12 9.4 °F 5.0 °F 1022.6 in NNW 1.6 mph 12.9 mph 74 % 0.0 in
21:17 9.2 °F 5.0 °F 1022.6 in NE 3.2 mph 11.3 mph 75 % 0.0 in
21:22 9.1 °F 5.1 °F 1022.6 in NW 3.2 mph 11.3 mph 76 % 0.0 in
21:27 8.9 °F 4.9 °F 1022.6 in Calm   8.0 mph 76 % 0.0 in
21:32 8.8 °F 5.0 °F 1022.6 in North 6.4 mph 8.0 mph 77 % 0.0 in
21:37 8.7 °F 4.9 °F 1022.9 in North 3.2 mph 12.9 mph 77 % 0.0 in
21:42 8.6 °F 5.0 °F 1022.6 in NNE 4.8 mph 12.9 mph 78 % 0.0 in
21:47 8.6 °F 5.0 °F 1022.6 in NNW 3.2 mph 12.9 mph 78 % 0.0 in
21:52 8.7 °F 5.1 °F 1022.9 in Calm   12.9 mph 78 % 0.0 in
21:57 8.7 °F 5.1 °F 1022.9 in Calm   9.7 mph 78 % 0.0 in
22:02 8.8 °F 5.2 °F 1022.9 in Calm   9.7 mph 78 % 0.0 in
22:07 8.8 °F 5.2 °F 1022.9 in NNW 3.2 mph 6.4 mph 78 % 0.0 in
22:12 8.8 °F 5.4 °F 1022.9 in North 4.8 mph 6.4 mph 79 % 0.0 in
22:17 8.9 °F 5.3 °F 1022.9 in North 4.8 mph 6.4 mph 78 % 0.0 in
22:22 8.9 °F 5.3 °F 1022.9 in NNE 3.2 mph 6.4 mph 78 % 0.0 in
22:27 9.0 °F 5.6 °F 1022.9 in NNE 3.2 mph 6.4 mph 79 % 0.0 in
22:32 9.1 °F 5.7 °F 1022.9 in North 4.8 mph 9.7 mph 79 % 0.0 in
22:37 9.1 °F 5.7 °F 1022.9 in NNW 1.6 mph 9.7 mph 79 % 0.0 in
22:42 9.1 °F 5.7 °F 1022.9 in NW 3.2 mph 8.0 mph 79 % 0.0 in
22:47 9.1 °F 5.7 °F 1022.9 in NNW 3.2 mph 8.0 mph 79 % 0.0 in
22:52 9.2 °F 5.7 °F 1022.9 in NNE 1.6 mph 8.0 mph 79 % 0.0 in
22:57 9.2 °F 5.7 °F 1022.9 in NNE 3.2 mph 8.0 mph 79 % 0.0 in
23:02 9.2 °F 5.7 °F 1022.9 in NNW 1.6 mph 8.0 mph 79 % 0.0 in
23:12 9.0 °F 5.9 °F 1022.9 in Calm   4.8 mph 81 % 0.0 in
23:17 8.9 °F 5.8 °F 1022.9 in Calm   1.6 mph 81 % 0.0 in
23:22 8.9 °F 6.0 °F 1022.9 in Calm   1.6 mph 82 % 0.0 in
23:27 8.9 °F 6.0 °F 1022.9 in Calm   1.6 mph 82 % 0.0 in
23:32 8.9 °F 6.2 °F 1022.9 in Calm   3.2 mph 83 % 0.0 in
23:42 8.9 °F 6.3 °F 1022.9 in North 1.6 mph 6.4 mph 84 % 0.0 in
23:47 8.9 °F 6.3 °F 1022.9 in North 3.2 mph 6.4 mph 84 % 0.0 in
23:52 9.0 °F 6.4 °F 1022.9 in NNW 4.8 mph 6.4 mph 84 % 0.0 in
23:57 9.1 °F 6.5 °F 1022.9 in Calm   6.4 mph 84 % 0.0 in
Meteo18
Compliments of Weather Underground - 4 mb

Script developed by  Jim McMurry - jmcmurry@mwt.net Adapted for the template by  Wim van der Kuil - Leuven-Template.eu

You find our weather info also at:

European Weather Network

Weather Underground

Equipment we use:

Weather-station
Davis Vue

Weather-program
Meteobridge

Weather-server
Raspberry PI 2 B+

Provider
1 and 1

Davis Vue

Meteobridge

Raspberry PI 2 B+

1 and 1